sensor_id;sensor_type;location;lat;lon;timestamp;P1;durP1;ratioP1;P2;durP2;ratioP2
24867;SDS011;12941;48.698;9.310;2024-02-15T00:00:28;3.7;;;3.1;;
24867;SDS011;12941;48.698;9.310;2024-02-15T00:01:32;3.7;;;3.1;;
24867;SDS011;12941;48.698;9.310;2024-02-15T00:02:32;3.7;;;3.1;;
24867;SDS011;12941;48.698;9.310;2024-02-15T00:03:37;3.7;;;3.1;;
24867;SDS011;12941;48.698;9.310;2024-02-15T00:04:38;5.2;;;3;;
24867;SDS011;12941;48.698;9.310;2024-02-15T00:05:38;5.1;;;3;;
24867;SDS011;12941;48.698;9.310;2024-02-15T00:06:42;5.1;;;3;;
24867;SDS011;12941;48.698;9.310;2024-02-15T00:07:48;5.1;;;3;;
24867;SDS011;12941;48.698;9.310;2024-02-15T00:08:52;5.1;;;3;;
24867;SDS011;12941;48.698;9.310;2024-02-15T00:09:52;4.7;;;3.3;;
24867;SDS011;12941;48.698;9.310;2024-02-15T00:10:52;4.7;;;3.3;;
24867;SDS011;12941;48.698;9.310;2024-02-15T00:11:52;4.7;;;3.3;;
24867;SDS011;12941;48.698;9.310;2024-02-15T00:12:53;4.7;;;3.3;;
24867;SDS011;12941;48.698;9.310;2024-02-15T00:13:58;4.7;;;3.3;;
24867;SDS011;12941;48.698;9.310;2024-02-15T00:14:58;3.8;;;3.1;;
24867;SDS011;12941;48.698;9.310;2024-02-15T00:16:03;3.8;;;3.1;;
24867;SDS011;12941;48.698;9.310;2024-02-15T00:17:03;3.8;;;3.1;;
24867;SDS011;12941;48.698;9.310;2024-02-15T00:18:08;3.8;;;3.1;;
24867;SDS011;12941;48.698;9.310;2024-02-15T00:19:13;3.8;;;3.1;;
24867;SDS011;12941;48.698;9.310;2024-02-15T00:20:13;3.9;;;3.1;;
24867;SDS011;12941;48.698;9.310;2024-02-15T00:21:18;3.9;;;3.1;;
24867;SDS011;12941;48.698;9.310;2024-02-15T00:22:23;3.9;;;3.1;;
24867;SDS011;12941;48.698;9.310;2024-02-15T00:23:23;3.9;;;3.1;;
24867;SDS011;12941;48.698;9.310;2024-02-15T00:24:23;3.9;;;3.1;;
24867;SDS011;12941;48.698;9.310;2024-02-15T00:25:23;3.9;;;2.9;;
24867;SDS011;12941;48.698;9.310;2024-02-15T00:26:28;3.9;;;2.9;;
24867;SDS011;12941;48.698;9.310;2024-02-15T00:27:28;3.9;;;2.9;;
24867;SDS011;12941;48.698;9.310;2024-02-15T00:28:28;3.9;;;2.9;;
24867;SDS011;12941;48.698;9.310;2024-02-15T00:29:33;3.9;;;2.9;;
24867;SDS011;12941;48.698;9.310;2024-02-15T00:30:38;4.3;;;2.9;;
24867;SDS011;12941;48.698;9.310;2024-02-15T00:31:43;4.3;;;2.9;;
24867;SDS011;12941;48.698;9.310;2024-02-15T00:32:43;4.3;;;2.9;;
24867;SDS011;12941;48.698;9.310;2024-02-15T00:33:43;4.3;;;2.9;;
24867;SDS011;12941;48.698;9.310;2024-02-15T00:34:43;4.8;;;3;;
24867;SDS011;12941;48.698;9.310;2024-02-15T00:35:48;4.8;;;3;;
24867;SDS011;12941;48.698;9.310;2024-02-15T00:36:53;4.8;;;3;;
24867;SDS011;12941;48.698;9.310;2024-02-15T00:37:53;4.8;;;3;;
24867;SDS011;12941;48.698;9.310;2024-02-15T00:38:58;4.8;;;3;;
24867;SDS011;12941;48.698;9.310;2024-02-15T00:40:03;4.1;;;2.6;;
24867;SDS011;12941;48.698;9.310;2024-02-15T00:41:03;4.1;;;2.6;;
24867;SDS011;12941;48.698;9.310;2024-02-15T00:42:08;4.1;;;2.6;;
24867;SDS011;12941;48.698;9.310;2024-02-15T00:43:08;4.1;;;2.6;;
24867;SDS011;12941;48.698;9.310;2024-02-15T00:44:13;4.1;;;2.6;;
24867;SDS011;12941;48.698;9.310;2024-02-15T00:45:13;1.6;;;1.5;;
24867;SDS011;12941;48.698;9.310;2024-02-15T00:46:18;1.6;;;1.5;;
24867;SDS011;12941;48.698;9.310;2024-02-15T00:47:23;1.6;;;1.5;;
24867;SDS011;12941;48.698;9.310;2024-02-15T00:48:23;1.6;;;1.5;;
24867;SDS011;12941;48.698;9.310;2024-02-15T00:49:23;1.6;;;1.5;;
24867;SDS011;12941;48.698;9.310;2024-02-15T00:50:23;2.5;;;1.5;;
24867;SDS011;12941;48.698;9.310;2024-02-15T00:51:28;2.5;;;1.5;;
24867;SDS011;12941;48.698;9.310;2024-02-15T00:52:28;2.5;;;1.5;;
24867;SDS011;12941;48.698;9.310;2024-02-15T00:53:28;2.5;;;1.5;;
24867;SDS011;12941;48.698;9.310;2024-02-15T00:54:33;2.5;;;1.5;;
24867;SDS011;12941;48.698;9.310;2024-02-15T00:55:38;2.6;;;1.8;;
24867;SDS011;12941;48.698;9.310;2024-02-15T00:56:38;2.6;;;1.8;;
24867;SDS011;12941;48.698;9.310;2024-02-15T00:57:43;2.6;;;1.8;;
24867;SDS011;12941;48.698;9.310;2024-02-15T00:58:48;2.6;;;1.8;;
24867;SDS011;12941;48.698;9.310;2024-02-15T00:59:48;2.3;;;1.4;;
24867;SDS011;12941;48.698;9.310;2024-02-15T01:00:53;2.3;;;1.4;;
24867;SDS011;12941;48.698;9.310;2024-02-15T01:01:58;2.3;;;1.4;;
24867;SDS011;12941;48.698;9.310;2024-02-15T01:02:58;2.3;;;1.4;;
24867;SDS011;12941;48.698;9.310;2024-02-15T01:03:58;2.3;;;1.4;;
24867;SDS011;12941;48.698;9.310;2024-02-15T01:05:03;2.4;;;1.5;;
24867;SDS011;12941;48.698;9.310;2024-02-15T01:06:08;2.4;;;1.5;;
24867;SDS011;12941;48.698;9.310;2024-02-15T01:07:08;2.4;;;1.5;;
24867;SDS011;12941;48.698;9.310;2024-02-15T01:08:08;2.4;;;1.5;;
24867;SDS011;12941;48.698;9.310;2024-02-15T01:09:13;2.4;;;1.5;;
24867;SDS011;12941;48.698;9.310;2024-02-15T01:10:18;1.8;;;1.7;;
24867;SDS011;12941;48.698;9.310;2024-02-15T01:11:23;1.8;;;1.7;;
24867;SDS011;12941;48.698;9.310;2024-02-15T01:12:28;1.8;;;1.7;;
24867;SDS011;12941;48.698;9.310;2024-02-15T01:13:28;1.8;;;1.7;;
24867;SDS011;12941;48.698;9.310;2024-02-15T01:14:33;1.8;;;1.7;;
24867;SDS011;12941;48.698;9.310;2024-02-15T01:15:38;3.6;;;1.6;;
24867;SDS011;12941;48.698;9.310;2024-02-15T01:16:38;3.6;;;1.6;;
24867;SDS011;12941;48.698;9.310;2024-02-15T01:17:38;3.6;;;1.6;;
24867;SDS011;12941;48.698;9.310;2024-02-15T01:18:43;3.6;;;1.6;;
24867;SDS011;12941;48.698;9.310;2024-02-15T01:19:44;2.7;;;1.5;;
24867;SDS011;12941;48.698;9.310;2024-02-15T01:20:48;2.7;;;1.5;;
24867;SDS011;12941;48.698;9.310;2024-02-15T01:21:53;2.7;;;1.5;;
24867;SDS011;12941;48.698;9.310;2024-02-15T01:22:53;2.7;;;1.5;;
24867;SDS011;12941;48.698;9.310;2024-02-15T01:23:58;2.7;;;1.5;;
24867;SDS011;12941;48.698;9.310;2024-02-15T01:25:03;4.2;;;1.8;;
24867;SDS011;12941;48.698;9.310;2024-02-15T01:26:03;4.2;;;1.8;;
24867;SDS011;12941;48.698;9.310;2024-02-15T01:27:08;4.2;;;1.8;;
24867;SDS011;12941;48.698;9.310;2024-02-15T01:28:08;4.2;;;1.8;;
24867;SDS011;12941;48.698;9.310;2024-02-15T01:29:08;4.2;;;1.8;;
24867;SDS011;12941;48.698;9.310;2024-02-15T01:30:13;2.5;;;1.7;;
24867;SDS011;12941;48.698;9.310;2024-02-15T01:31:13;2.5;;;1.7;;
24867;SDS011;12941;48.698;9.310;2024-02-15T01:32:13;2.5;;;1.7;;
24867;SDS011;12941;48.698;9.310;2024-02-15T01:33:18;2.5;;;1.7;;
24867;SDS011;12941;48.698;9.310;2024-02-15T01:34:18;2.5;;;1.7;;
24867;SDS011;12941;48.698;9.310;2024-02-15T01:35:23;2.6;;;1.9;;
24867;SDS011;12941;48.698;9.310;2024-02-15T01:36:23;2.6;;;1.9;;
24867;SDS011;12941;48.698;9.310;2024-02-15T01:37:23;2.6;;;1.9;;
24867;SDS011;12941;48.698;9.310;2024-02-15T01:38:28;2.6;;;1.9;;
24867;SDS011;12941;48.698;9.310;2024-02-15T01:39:33;2.6;;;1.9;;
24867;SDS011;12941;48.698;9.310;2024-02-15T01:40:38;2.3;;;1.7;;
24867;SDS011;12941;48.698;9.310;2024-02-15T01:41:46;2.3;;;1.7;;
24867;SDS011;12941;48.698;9.310;2024-02-15T01:42:44;2.3;;;1.7;;
24867;SDS011;12941;48.698;9.310;2024-02-15T01:43:48;2.3;;;1.7;;
24867;SDS011;12941;48.698;9.310;2024-02-15T01:44:48;2.7;;;2;;
24867;SDS011;12941;48.698;9.310;2024-02-15T01:45:53;2.7;;;2;;
24867;SDS011;12941;48.698;9.310;2024-02-15T01:46:53;2.7;;;2;;
24867;SDS011;12941;48.698;9.310;2024-02-15T01:47:58;2.7;;;2;;
24867;SDS011;12941;48.698;9.310;2024-02-15T01:49:03;2.7;;;2;;
24867;SDS011;12941;48.698;9.310;2024-02-15T01:50:03;2.7;;;1.8;;
24867;SDS011;12941;48.698;9.310;2024-02-15T01:51:09;2.7;;;1.8;;
24867;SDS011;12941;48.698;9.310;2024-02-15T01:52:08;2.7;;;1.8;;
24867;SDS011;12941;48.698;9.310;2024-02-15T01:53:08;2.7;;;1.8;;
24867;SDS011;12941;48.698;9.310;2024-02-15T01:54:13;2.7;;;1.8;;
24867;SDS011;12941;48.698;9.310;2024-02-15T01:55:14;2.2;;;1.9;;
24867;SDS011;12941;48.698;9.310;2024-02-15T01:56:18;2.2;;;1.9;;
24867;SDS011;12941;48.698;9.310;2024-02-15T01:57:23;2.2;;;1.9;;
24867;SDS011;12941;48.698;9.310;2024-02-15T01:58:23;2.2;;;1.9;;
24867;SDS011;12941;48.698;9.310;2024-02-15T01:59:28;2.2;;;1.9;;
24867;SDS011;12941;48.698;9.310;2024-02-15T02:00:33;1.7;;;1.6;;
24867;SDS011;12941;48.698;9.310;2024-02-15T02:01:38;1.7;;;1.6;;
24867;SDS011;12941;48.698;9.310;2024-02-15T02:02:39;1.7;;;1.6;;
24867;SDS011;12941;48.698;9.310;2024-02-15T02:03:43;1.7;;;1.6;;
24867;SDS011;12941;48.698;9.310;2024-02-15T02:04:43;2.7;;;1.8;;
24867;SDS011;12941;48.698;9.310;2024-02-15T02:05:43;2.7;;;1.8;;
24867;SDS011;12941;48.698;9.310;2024-02-15T02:06:43;2.7;;;1.8;;
24867;SDS011;12941;48.698;9.310;2024-02-15T02:07:48;2.7;;;1.8;;
24867;SDS011;12941;48.698;9.310;2024-02-15T02:08:48;2.7;;;1.8;;
24867;SDS011;12941;48.698;9.310;2024-02-15T02:09:53;2.1;;;1.4;;
24867;SDS011;12941;48.698;9.310;2024-02-15T02:10:58;2.1;;;1.4;;
24867;SDS011;12941;48.698;9.310;2024-02-15T02:11:58;2.1;;;1.4;;
24867;SDS011;12941;48.698;9.310;2024-02-15T02:12:59;2.1;;;1.4;;
24867;SDS011;12941;48.698;9.310;2024-02-15T02:13:58;2.1;;;1.4;;
24867;SDS011;12941;48.698;9.310;2024-02-15T02:15:04;3;;;1.6;;
24867;SDS011;12941;48.698;9.310;2024-02-15T02:16:23;3;;;1.6;;
24867;SDS011;12941;48.698;9.310;2024-02-15T02:17:12;3;;;1.6;;
24867;SDS011;12941;48.698;9.310;2024-02-15T02:18:08;3;;;1.6;;
24867;SDS011;12941;48.698;9.310;2024-02-15T02:19:13;3;;;1.6;;
24867;SDS011;12941;48.698;9.310;2024-02-15T02:20:13;2.2;;;1.5;;
24867;SDS011;12941;48.698;9.310;2024-02-15T02:21:13;2.2;;;1.5;;
24867;SDS011;12941;48.698;9.310;2024-02-15T02:22:18;2.2;;;1.5;;
24867;SDS011;12941;48.698;9.310;2024-02-15T02:23:18;2.2;;;1.5;;
24867;SDS011;12941;48.698;9.310;2024-02-15T02:24:21;2.2;;;1.5;;
24867;SDS011;12941;48.698;9.310;2024-02-15T02:25:23;2.3;;;1.3;;
24867;SDS011;12941;48.698;9.310;2024-02-15T02:26:24;2.3;;;1.3;;
24867;SDS011;12941;48.698;9.310;2024-02-15T02:27:29;2.3;;;1.3;;
24867;SDS011;12941;48.698;9.310;2024-02-15T02:28:28;2.3;;;1.3;;
24867;SDS011;12941;48.698;9.310;2024-02-15T02:29:28;2.3;;;1.3;;
24867;SDS011;12941;48.698;9.310;2024-02-15T02:30:33;1.3;;;1.2;;
24867;SDS011;12941;48.698;9.310;2024-02-15T02:31:38;1.3;;;1.2;;
24867;SDS011;12941;48.698;9.310;2024-02-15T02:32:43;1.3;;;1.2;;
24867;SDS011;12941;48.698;9.310;2024-02-15T02:33:46;1.3;;;1.2;;
24867;SDS011;12941;48.698;9.310;2024-02-15T02:34:43;3.4;;;2.1;;
24867;SDS011;12941;48.698;9.310;2024-02-15T02:35:44;3.4;;;2.1;;
24867;SDS011;12941;48.698;9.310;2024-02-15T02:36:48;3.4;;;2.1;;
24867;SDS011;12941;48.698;9.310;2024-02-15T02:37:48;3.4;;;2.1;;
24867;SDS011;12941;48.698;9.310;2024-02-15T02:38:48;3.4;;;2.1;;
24867;SDS011;12941;48.698;9.310;2024-02-15T02:39:53;4;;;2.7;;
24867;SDS011;12941;48.698;9.310;2024-02-15T02:40:58;4;;;2.7;;
24867;SDS011;12941;48.698;9.310;2024-02-15T02:41:58;4;;;2.7;;
24867;SDS011;12941;48.698;9.310;2024-02-15T02:43:03;4;;;2.7;;
24867;SDS011;12941;48.698;9.310;2024-02-15T02:44:08;4;;;2.7;;
24867;SDS011;12941;48.698;9.310;2024-02-15T02:45:13;5.1;;;3;;
24867;SDS011;12941;48.698;9.310;2024-02-15T02:46:13;5.1;;;3;;
24867;SDS011;12941;48.698;9.310;2024-02-15T02:47:18;5.1;;;3;;
24867;SDS011;12941;48.698;9.310;2024-02-15T02:48:18;5.1;;;3;;
24867;SDS011;12941;48.698;9.310;2024-02-15T02:49:23;5.1;;;3;;
24867;SDS011;12941;48.698;9.310;2024-02-15T02:50:29;5.2;;;2.4;;
24867;SDS011;12941;48.698;9.310;2024-02-15T02:51:33;5.2;;;2.4;;
24867;SDS011;12941;48.698;9.310;2024-02-15T02:52:38;5.2;;;2.4;;
24867;SDS011;12941;48.698;9.310;2024-02-15T02:53:39;5.2;;;2.4;;
24867;SDS011;12941;48.698;9.310;2024-02-15T02:54:39;4.4;;;3;;
24867;SDS011;12941;48.698;9.310;2024-02-15T02:55:39;4.4;;;3;;
24867;SDS011;12941;48.698;9.310;2024-02-15T02:56:43;4.4;;;3;;
24867;SDS011;12941;48.698;9.310;2024-02-15T02:57:48;4.4;;;3;;
24867;SDS011;12941;48.698;9.310;2024-02-15T02:58:48;4.4;;;3;;
24867;SDS011;12941;48.698;9.310;2024-02-15T02:59:53;4.7;;;2.9;;
24867;SDS011;12941;48.698;9.310;2024-02-15T03:00:58;4.7;;;2.9;;
24867;SDS011;12941;48.698;9.310;2024-02-15T03:02:04;4.7;;;2.9;;
24867;SDS011;12941;48.698;9.310;2024-02-15T03:03:08;4.7;;;2.9;;
24867;SDS011;12941;48.698;9.310;2024-02-15T03:04:08;4.7;;;2.9;;
24867;SDS011;12941;48.698;9.310;2024-02-15T03:05:13;4.2;;;3.2;;
24867;SDS011;12941;48.698;9.310;2024-02-15T03:06:19;4.2;;;3.2;;
24867;SDS011;12941;48.698;9.310;2024-02-15T03:07:23;4.2;;;3.2;;
24867;SDS011;12941;48.698;9.310;2024-02-15T03:08:29;4.2;;;3.2;;
24867;SDS011;12941;48.698;9.310;2024-02-15T03:09:33;4.2;;;3.2;;
24867;SDS011;12941;48.698;9.310;2024-02-15T03:10:34;4.7;;;2.9;;
24867;SDS011;12941;48.698;9.310;2024-02-15T03:11:33;4.7;;;2.9;;
24867;SDS011;12941;48.698;9.310;2024-02-15T03:12:39;4.7;;;2.9;;
24867;SDS011;12941;48.698;9.310;2024-02-15T03:13:38;4.7;;;2.9;;
24867;SDS011;12941;48.698;9.310;2024-02-15T03:14:38;3.2;;;2.9;;
24867;SDS011;12941;48.698;9.310;2024-02-15T03:15:44;3.2;;;2.9;;
24867;SDS011;12941;48.698;9.310;2024-02-15T03:16:43;3.2;;;2.9;;
24867;SDS011;12941;48.698;9.310;2024-02-15T03:17:45;3.2;;;2.9;;
24867;SDS011;12941;48.698;9.310;2024-02-15T03:18:48;3.2;;;2.9;;
24867;SDS011;12941;48.698;9.310;2024-02-15T03:19:49;2.7;;;2.3;;
24867;SDS011;12941;48.698;9.310;2024-02-15T03:20:49;2.7;;;2.3;;
24867;SDS011;12941;48.698;9.310;2024-02-15T03:21:54;2.7;;;2.3;;
24867;SDS011;12941;48.698;9.310;2024-02-15T03:23:00;2.7;;;2.3;;
24867;SDS011;12941;48.698;9.310;2024-02-15T03:24:04;2.7;;;2.3;;
24867;SDS011;12941;48.698;9.310;2024-02-15T03:25:04;4;;;2.5;;
24867;SDS011;12941;48.698;9.310;2024-02-15T03:26:09;4;;;2.5;;
24867;SDS011;12941;48.698;9.310;2024-02-15T03:27:14;4;;;2.5;;
24867;SDS011;12941;48.698;9.310;2024-02-15T03:28:19;4;;;2.5;;
24867;SDS011;12941;48.698;9.310;2024-02-15T03:29:19;4;;;2.5;;
24867;SDS011;12941;48.698;9.310;2024-02-15T03:30:24;3.8;;;2.3;;
24867;SDS011;12941;48.698;9.310;2024-02-15T03:31:24;3.8;;;2.3;;
24867;SDS011;12941;48.698;9.310;2024-02-15T03:32:29;3.8;;;2.3;;
24867;SDS011;12941;48.698;9.310;2024-02-15T03:33:29;3.8;;;2.3;;
24867;SDS011;12941;48.698;9.310;2024-02-15T03:34:34;3.8;;;2.3;;
24867;SDS011;12941;48.698;9.310;2024-02-15T03:35:34;4;;;2.3;;
24867;SDS011;12941;48.698;9.310;2024-02-15T03:36:39;4;;;2.3;;
24867;SDS011;12941;48.698;9.310;2024-02-15T03:37:44;4;;;2.3;;
24867;SDS011;12941;48.698;9.310;2024-02-15T03:38:49;4;;;2.3;;
24867;SDS011;12941;48.698;9.310;2024-02-15T03:39:49;2.9;;;2.2;;
24867;SDS011;12941;48.698;9.310;2024-02-15T03:40:54;2.9;;;2.2;;
24867;SDS011;12941;48.698;9.310;2024-02-15T03:41:54;2.9;;;2.2;;
24867;SDS011;12941;48.698;9.310;2024-02-15T03:42:54;2.9;;;2.2;;
24867;SDS011;12941;48.698;9.310;2024-02-15T03:43:59;2.9;;;2.2;;
24867;SDS011;12941;48.698;9.310;2024-02-15T03:44:59;4.7;;;2.6;;
24867;SDS011;12941;48.698;9.310;2024-02-15T03:46:04;4.7;;;2.6;;
24867;SDS011;12941;48.698;9.310;2024-02-15T03:47:09;4.7;;;2.6;;
24867;SDS011;12941;48.698;9.310;2024-02-15T03:48:09;4.7;;;2.6;;
24867;SDS011;12941;48.698;9.310;2024-02-15T03:49:09;4.7;;;2.6;;
24867;SDS011;12941;48.698;9.310;2024-02-15T03:50:09;2.7;;;2.5;;
24867;SDS011;12941;48.698;9.310;2024-02-15T03:51:09;2.7;;;2.5;;
24867;SDS011;12941;48.698;9.310;2024-02-15T03:52:09;2.7;;;2.5;;
24867;SDS011;12941;48.698;9.310;2024-02-15T03:53:09;2.7;;;2.5;;
24867;SDS011;12941;48.698;9.310;2024-02-15T03:54:14;2.7;;;2.5;;
24867;SDS011;12941;48.698;9.310;2024-02-15T03:55:19;3.5;;;2.4;;
24867;SDS011;12941;48.698;9.310;2024-02-15T03:56:19;3.5;;;2.4;;
24867;SDS011;12941;48.698;9.310;2024-02-15T03:57:19;3.5;;;2.4;;
24867;SDS011;12941;48.698;9.310;2024-02-15T03:58:24;3.5;;;2.4;;
24867;SDS011;12941;48.698;9.310;2024-02-15T03:59:29;3.5;;;2.4;;
24867;SDS011;12941;48.698;9.310;2024-02-15T04:00:34;3.4;;;2.3;;
24867;SDS011;12941;48.698;9.310;2024-02-15T04:01:34;3.4;;;2.3;;
24867;SDS011;12941;48.698;9.310;2024-02-15T04:02:34;3.4;;;2.3;;
24867;SDS011;12941;48.698;9.310;2024-02-15T04:03:39;3.4;;;2.3;;
24867;SDS011;12941;48.698;9.310;2024-02-15T04:04:42;4.7;;;2.7;;
24867;SDS011;12941;48.698;9.310;2024-02-15T04:05:44;4.7;;;2.7;;
24867;SDS011;12941;48.698;9.310;2024-02-15T04:06:49;4.7;;;2.7;;
24867;SDS011;12941;48.698;9.310;2024-02-15T04:07:49;4.7;;;2.7;;
24867;SDS011;12941;48.698;9.310;2024-02-15T04:08:54;4.7;;;2.7;;
24867;SDS011;12941;48.698;9.310;2024-02-15T04:09:59;3.3;;;2.6;;
24867;SDS011;12941;48.698;9.310;2024-02-15T04:10:59;3.3;;;2.6;;
24867;SDS011;12941;48.698;9.310;2024-02-15T04:12:05;3.3;;;2.6;;
24867;SDS011;12941;48.698;9.310;2024-02-15T04:13:04;3.3;;;2.6;;
24867;SDS011;12941;48.698;9.310;2024-02-15T04:14:04;3.3;;;2.6;;
24867;SDS011;12941;48.698;9.310;2024-02-15T04:15:09;5.2;;;2.8;;
24867;SDS011;12941;48.698;9.310;2024-02-15T04:16:09;5.2;;;2.8;;
24867;SDS011;12941;48.698;9.310;2024-02-15T04:17:09;5.2;;;2.8;;
24867;SDS011;12941;48.698;9.310;2024-02-15T04:18:14;5.2;;;2.8;;
24867;SDS011;12941;48.698;9.310;2024-02-15T04:19:19;5.2;;;2.8;;
24867;SDS011;12941;48.698;9.310;2024-02-15T04:20:19;4.9;;;2.7;;
24867;SDS011;12941;48.698;9.310;2024-02-15T04:21:24;4.9;;;2.7;;
24867;SDS011;12941;48.698;9.310;2024-02-15T04:22:29;4.9;;;2.7;;
24867;SDS011;12941;48.698;9.310;2024-02-15T04:23:29;4.9;;;2.7;;
24867;SDS011;12941;48.698;9.310;2024-02-15T04:24:29;4.9;;;2.7;;
24867;SDS011;12941;48.698;9.310;2024-02-15T04:25:34;5.8;;;3.5;;
24867;SDS011;12941;48.698;9.310;2024-02-15T04:26:39;5.8;;;3.5;;
24867;SDS011;12941;48.698;9.310;2024-02-15T04:27:45;5.8;;;3.5;;
24867;SDS011;12941;48.698;9.310;2024-02-15T04:28:44;5.8;;;3.5;;
24867;SDS011;12941;48.698;9.310;2024-02-15T04:29:49;6.5;;;3.6;;
24867;SDS011;12941;48.698;9.310;2024-02-15T04:30:49;6.5;;;3.6;;
24867;SDS011;12941;48.698;9.310;2024-02-15T04:31:54;6.5;;;3.6;;
24867;SDS011;12941;48.698;9.310;2024-02-15T04:32:59;6.5;;;3.6;;
24867;SDS011;12941;48.698;9.310;2024-02-15T04:33:59;6.5;;;3.6;;
24867;SDS011;12941;48.698;9.310;2024-02-15T04:34:59;5;;;3.4;;
24867;SDS011;12941;48.698;9.310;2024-02-15T04:36:05;5;;;3.4;;
24867;SDS011;12941;48.698;9.310;2024-02-15T04:37:09;5;;;3.4;;
24867;SDS011;12941;48.698;9.310;2024-02-15T04:38:09;5;;;3.4;;
24867;SDS011;12941;48.698;9.310;2024-02-15T04:39:14;5;;;3.4;;
24867;SDS011;12941;48.698;9.310;2024-02-15T04:40:19;4.1;;;3.4;;
24867;SDS011;12941;48.698;9.310;2024-02-15T04:41:24;4.1;;;3.4;;
24867;SDS011;12941;48.698;9.310;2024-02-15T04:42:25;4.1;;;3.4;;
24867;SDS011;12941;48.698;9.310;2024-02-15T04:43:29;4.1;;;3.4;;
24867;SDS011;12941;48.698;9.310;2024-02-15T04:44:29;4.1;;;3.4;;
24867;SDS011;12941;48.698;9.310;2024-02-15T04:45:29;5.4;;;3.1;;
24867;SDS011;12941;48.698;9.310;2024-02-15T04:46:29;5.4;;;3.1;;
24867;SDS011;12941;48.698;9.310;2024-02-15T04:47:29;5.4;;;3.1;;
24867;SDS011;12941;48.698;9.310;2024-02-15T04:48:29;5.4;;;3.1;;
24867;SDS011;12941;48.698;9.310;2024-02-15T04:49:35;5.4;;;3.1;;
24867;SDS011;12941;48.698;9.310;2024-02-15T04:50:39;5.4;;;3.5;;
24867;SDS011;12941;48.698;9.310;2024-02-15T04:51:44;5.4;;;3.5;;
24867;SDS011;12941;48.698;9.310;2024-02-15T04:52:49;5.4;;;3.5;;
24867;SDS011;12941;48.698;9.310;2024-02-15T04:53:55;5.4;;;3.5;;
24867;SDS011;12941;48.698;9.310;2024-02-15T04:54:55;3.4;;;3.1;;
24867;SDS011;12941;48.698;9.310;2024-02-15T04:55:59;3.4;;;3.1;;
24867;SDS011;12941;48.698;9.310;2024-02-15T04:57:00;3.4;;;3.1;;
24867;SDS011;12941;48.698;9.310;2024-02-15T04:58:05;3.4;;;3.1;;
24867;SDS011;12941;48.698;9.310;2024-02-15T04:59:05;3.4;;;3.1;;
24867;SDS011;12941;48.698;9.310;2024-02-15T05:00:05;4;;;3.4;;
24867;SDS011;12941;48.698;9.310;2024-02-15T05:01:09;4;;;3.4;;
24867;SDS011;12941;48.698;9.310;2024-02-15T05:02:10;4;;;3.4;;
24867;SDS011;12941;48.698;9.310;2024-02-15T05:03:10;4;;;3.4;;
24867;SDS011;12941;48.698;9.310;2024-02-15T05:04:15;4;;;3.4;;
24867;SDS011;12941;48.698;9.310;2024-02-15T05:05:20;6.3;;;3.3;;
24867;SDS011;12941;48.698;9.310;2024-02-15T05:06:25;6.3;;;3.3;;
24867;SDS011;12941;48.698;9.310;2024-02-15T05:07:30;6.3;;;3.3;;
24867;SDS011;12941;48.698;9.310;2024-02-15T05:08:30;6.3;;;3.3;;
24867;SDS011;12941;48.698;9.310;2024-02-15T05:09:35;6.3;;;3.3;;
24867;SDS011;12941;48.698;9.310;2024-02-15T05:10:35;4.7;;;3.2;;
24867;SDS011;12941;48.698;9.310;2024-02-15T05:11:36;4.7;;;3.2;;
24867;SDS011;12941;48.698;9.310;2024-02-15T05:12:40;4.7;;;3.2;;
24867;SDS011;12941;48.698;9.310;2024-02-15T05:13:40;4.7;;;3.2;;
24867;SDS011;12941;48.698;9.310;2024-02-15T05:14:42;7.7;;;3.4;;
24867;SDS011;12941;48.698;9.310;2024-02-15T05:15:45;7.7;;;3.4;;
24867;SDS011;12941;48.698;9.310;2024-02-15T05:16:45;7.7;;;3.4;;
24867;SDS011;12941;48.698;9.310;2024-02-15T05:17:45;7.7;;;3.4;;
24867;SDS011;12941;48.698;9.310;2024-02-15T05:18:50;7.7;;;3.4;;
24867;SDS011;12941;48.698;9.310;2024-02-15T05:19:50;5.1;;;3.2;;
24867;SDS011;12941;48.698;9.310;2024-02-15T05:20:56;5.1;;;3.2;;
24867;SDS011;12941;48.698;9.310;2024-02-15T05:22:00;5.1;;;3.2;;
24867;SDS011;12941;48.698;9.310;2024-02-15T05:23:00;5.1;;;3.2;;
24867;SDS011;12941;48.698;9.310;2024-02-15T05:24:05;5.1;;;3.2;;
24867;SDS011;12941;48.698;9.310;2024-02-15T05:25:10;4.9;;;3.4;;
24867;SDS011;12941;48.698;9.310;2024-02-15T05:26:15;4.9;;;3.4;;
24867;SDS011;12941;48.698;9.310;2024-02-15T05:27:20;4.9;;;3.4;;
24867;SDS011;12941;48.698;9.310;2024-02-15T05:28:20;4.9;;;3.4;;
24867;SDS011;12941;48.698;9.310;2024-02-15T05:29:25;4.9;;;3.4;;
24867;SDS011;12941;48.698;9.310;2024-02-15T05:30:30;5;;;3.4;;
24867;SDS011;12941;48.698;9.310;2024-02-15T05:31:30;5;;;3.4;;
24867;SDS011;12941;48.698;9.310;2024-02-15T05:32:30;5;;;3.4;;
24867;SDS011;12941;48.698;9.310;2024-02-15T05:33:30;5;;;3.4;;
24867;SDS011;12941;48.698;9.310;2024-02-15T05:34:35;5;;;3.4;;
24867;SDS011;12941;48.698;9.310;2024-02-15T05:35:35;6;;;3.7;;
24867;SDS011;12941;48.698;9.310;2024-02-15T05:36:40;6;;;3.7;;
24867;SDS011;12941;48.698;9.310;2024-02-15T05:37:40;6;;;3.7;;
24867;SDS011;12941;48.698;9.310;2024-02-15T05:38:40;6;;;3.7;;
24867;SDS011;12941;48.698;9.310;2024-02-15T05:39:42;6.8;;;4;;
24867;SDS011;12941;48.698;9.310;2024-02-15T05:40:45;6.8;;;4;;
24867;SDS011;12941;48.698;9.310;2024-02-15T05:41:45;6.8;;;4;;
24867;SDS011;12941;48.698;9.310;2024-02-15T05:42:54;6.8;;;4;;
24867;SDS011;12941;48.698;9.310;2024-02-15T05:43:50;6.8;;;4;;
24867;SDS011;12941;48.698;9.310;2024-02-15T05:44:56;3.6;;;3.1;;
24867;SDS011;12941;48.698;9.310;2024-02-15T05:46:00;3.6;;;3.1;;
24867;SDS011;12941;48.698;9.310;2024-02-15T05:47:00;3.6;;;3.1;;
24867;SDS011;12941;48.698;9.310;2024-02-15T05:48:00;3.6;;;3.1;;
24867;SDS011;12941;48.698;9.310;2024-02-15T05:49:05;3.6;;;3.1;;
24867;SDS011;12941;48.698;9.310;2024-02-15T05:50:05;4.6;;;3.1;;
24867;SDS011;12941;48.698;9.310;2024-02-15T05:51:10;4.6;;;3.1;;
24867;SDS011;12941;48.698;9.310;2024-02-15T05:52:15;4.6;;;3.1;;
24867;SDS011;12941;48.698;9.310;2024-02-15T05:53:20;4.6;;;3.1;;
24867;SDS011;12941;48.698;9.310;2024-02-15T05:54:20;4.6;;;3.1;;
24867;SDS011;12941;48.698;9.310;2024-02-15T05:55:20;6.6;;;4;;
24867;SDS011;12941;48.698;9.310;2024-02-15T05:56:25;6.6;;;4;;
24867;SDS011;12941;48.698;9.310;2024-02-15T05:57:30;6.6;;;4;;
24867;SDS011;12941;48.698;9.310;2024-02-15T05:58:35;6.6;;;4;;
24867;SDS011;12941;48.698;9.310;2024-02-15T05:59:35;6.6;;;4;;
24867;SDS011;12941;48.698;9.310;2024-02-15T06:00:35;5.8;;;3.5;;
24867;SDS011;12941;48.698;9.310;2024-02-15T06:01:35;5.8;;;3.5;;
24867;SDS011;12941;48.698;9.310;2024-02-15T06:02:35;5.8;;;3.5;;
24867;SDS011;12941;48.698;9.310;2024-02-15T06:03:40;5.8;;;3.5;;
24867;SDS011;12941;48.698;9.310;2024-02-15T06:04:40;4.9;;;3.5;;
24867;SDS011;12941;48.698;9.310;2024-02-15T06:05:45;4.9;;;3.5;;
24867;SDS011;12941;48.698;9.310;2024-02-15T06:06:50;4.9;;;3.5;;
24867;SDS011;12941;48.698;9.310;2024-02-15T06:07:50;4.9;;;3.5;;
24867;SDS011;12941;48.698;9.310;2024-02-15T06:08:56;4.9;;;3.5;;
24867;SDS011;12941;48.698;9.310;2024-02-15T06:09:56;4.1;;;3.5;;
24867;SDS011;12941;48.698;9.310;2024-02-15T06:10:56;4.1;;;3.5;;
24867;SDS011;12941;48.698;9.310;2024-02-15T06:12:00;4.1;;;3.5;;
24867;SDS011;12941;48.698;9.310;2024-02-15T06:13:00;4.1;;;3.5;;
24867;SDS011;12941;48.698;9.310;2024-02-15T06:14:05;4.1;;;3.5;;
24867;SDS011;12941;48.698;9.310;2024-02-15T06:15:05;7.7;;;4.4;;
24867;SDS011;12941;48.698;9.310;2024-02-15T06:16:10;7.7;;;4.4;;
24867;SDS011;12941;48.698;9.310;2024-02-15T06:17:15;7.7;;;4.4;;
24867;SDS011;12941;48.698;9.310;2024-02-15T06:18:15;7.7;;;4.4;;
24867;SDS011;12941;48.698;9.310;2024-02-15T06:19:20;7.7;;;4.4;;
24867;SDS011;12941;48.698;9.310;2024-02-15T06:20:25;4.1;;;3.3;;
24867;SDS011;12941;48.698;9.310;2024-02-15T06:21:30;4.1;;;3.3;;
24867;SDS011;12941;48.698;9.310;2024-02-15T06:22:30;4.1;;;3.3;;
24867;SDS011;12941;48.698;9.310;2024-02-15T06:23:30;4.1;;;3.3;;
24867;SDS011;12941;48.698;9.310;2024-02-15T06:24:31;4.1;;;3.3;;
24867;SDS011;12941;48.698;9.310;2024-02-15T06:25:31;5.7;;;4.4;;
24867;SDS011;12941;48.698;9.310;2024-02-15T06:26:31;5.7;;;4.4;;
24867;SDS011;12941;48.698;9.310;2024-02-15T06:27:31;5.7;;;4.4;;
24867;SDS011;12941;48.698;9.310;2024-02-15T06:28:36;5.7;;;4.4;;
24867;SDS011;12941;48.698;9.310;2024-02-15T06:29:36;5.7;;;4.4;;
24867;SDS011;12941;48.698;9.310;2024-02-15T06:30:36;7;;;4.1;;
24867;SDS011;12941;48.698;9.310;2024-02-15T06:31:41;7;;;4.1;;